sensor_id;sensor_type;location;lat;lon;timestamp;pressure;altitude;pressure_sealevel;temperature;humidity
25722;BME280;13578;53.450;15.496;2023-03-01T00:02:26;101129.66;;;-3.64;100.00
25722;BME280;13578;53.450;15.496;2023-03-01T00:05:26;101148.34;;;-3.56;100.00
25722;BME280;13578;53.450;15.496;2023-03-01T00:08:27;101154.63;;;-3.57;100.00
25722;BME280;13578;53.450;15.496;2023-03-01T00:11:30;101149.38;;;-3.68;100.00
25722;BME280;13578;53.450;15.496;2023-03-01T00:14:31;101136.09;;;-3.84;100.00
25722;BME280;13578;53.450;15.496;2023-03-01T00:17:32;101138.81;;;-3.87;100.00
25722;BME280;13578;53.450;15.496;2023-03-01T00:20:32;101151.34;;;-3.86;100.00
25722;BME280;13578;53.450;15.496;2023-03-01T00:23:34;101143.28;;;-3.87;100.00
25722;BME280;13578;53.450;15.496;2023-03-01T00:26:35;101139.72;;;-3.88;100.00
25722;BME280;13578;53.450;15.496;2023-03-01T00:29:36;101143.25;;;-3.84;100.00
25722;BME280;13578;53.450;15.496;2023-03-01T00:32:36;101144.94;;;-3.72;100.00
25722;BME280;13578;53.450;15.496;2023-03-01T00:35:37;101163.63;;;-3.64;100.00
25722;BME280;13578;53.450;15.496;2023-03-01T00:38:39;101154.78;;;-3.73;100.00
25722;BME280;13578;53.450;15.496;2023-03-01T00:41:41;101144.16;;;-3.82;100.00
25722;BME280;13578;53.450;15.496;2023-03-01T00:44:42;101156.69;;;-3.84;100.00
25722;BME280;13578;53.450;15.496;2023-03-01T00:47:43;101160.28;;;-3.88;100.00
25722;BME280;13578;53.450;15.496;2023-03-01T00:50:44;101158.53;;;-3.92;100.00
25722;BME280;13578;53.450;15.496;2023-03-01T00:53:45;101164.75;;;-3.87;100.00
25722;BME280;13578;53.450;15.496;2023-03-01T00:56:46;101170.13;;;-3.89;100.00
25722;BME280;13578;53.450;15.496;2023-03-01T00:59:47;101164.84;;;-3.96;100.00
25722;BME280;13578;53.450;15.496;2023-03-01T01:02:48;101174.56;;;-3.83;100.00
25722;BME280;13578;53.450;15.496;2023-03-01T01:05:48;101182.56;;;-3.77;100.00
25722;BME280;13578;53.450;15.496;2023-03-01T01:08:50;101180.69;;;-3.69;100.00
25722;BME280;13578;53.450;15.496;2023-03-01T01:11:51;101187.72;;;-3.55;100.00
25722;BME280;13578;53.450;15.496;2023-03-01T01:14:52;101184.09;;;-3.49;100.00
25722;BME280;13578;53.450;15.496;2023-03-01T01:17:52;101171.66;;;-3.60;100.00
25722;BME280;13578;53.450;15.496;2023-03-01T01:20:53;101171.72;;;-3.66;100.00
25722;BME280;13578;53.450;15.496;2023-03-01T01:23:54;101170.00;;;-3.75;100.00
25722;BME280;13578;53.450;15.496;2023-03-01T01:26:55;101167.34;;;-3.81;100.00
25722;BME280;13578;53.450;15.496;2023-03-01T01:29:56;101166.50;;;-3.83;100.00
25722;BME280;13578;53.450;15.496;2023-03-01T01:32:56;101154.00;;;-3.87;100.00
25722;BME280;13578;53.450;15.496;2023-03-01T01:35:57;101139.75;;;-3.89;100.00
25722;BME280;13578;53.450;15.496;2023-03-01T01:38:58;101136.97;;;-3.85;100.00
25722;BME280;13578;53.450;15.496;2023-03-01T01:42:00;101146.63;;;-3.60;100.00
25722;BME280;13578;53.450;15.496;2023-03-01T01:48:28;101146.56;;;-3.57;100.00
25722;BME280;13578;53.450;15.496;2023-03-01T01:51:42;101140.34;;;-3.61;100.00
25722;BME280;13578;53.450;15.496;2023-03-01T01:55:27;101125.16;;;-3.63;100.00
25722;BME280;13578;53.450;15.496;2023-03-01T01:58:11;101130.50;;;-3.60;100.00
25722;BME280;13578;53.450;15.496;2023-03-01T02:01:14;101115.16;;;-3.46;100.00
25722;BME280;13578;53.450;15.496;2023-03-01T02:04:14;101111.53;;;-3.43;100.00
25722;BME280;13578;53.450;15.496;2023-03-01T02:07:18;101107.94;;;-3.44;100.00
25722;BME280;13578;53.450;15.496;2023-03-01T02:10:21;101098.00;;;-3.36;100.00
25722;BME280;13578;53.450;15.496;2023-03-01T02:13:23;101088.00;;;-3.20;100.00
25722;BME280;13578;53.450;15.496;2023-03-01T02:16:25;101093.16;;;-3.06;100.00
25722;BME280;13578;53.450;15.496;2023-03-01T02:22:50;101085.19;;;-3.12;100.00
25722;BME280;13578;53.450;15.496;2023-03-01T02:29:20;101088.75;;;-3.10;100.00
25722;BME280;13578;53.450;15.496;2023-03-01T02:32:21;101084.34;;;-3.15;100.00
25722;BME280;13578;53.450;15.496;2023-03-01T02:35:25;101083.22;;;-3.00;100.00
25722;BME280;13578;53.450;15.496;2023-03-01T02:38:26;101078.81;;;-3.01;100.00
25722;BME280;13578;53.450;15.496;2023-03-01T02:41:30;101079.81;;;-3.12;100.00
25722;BME280;13578;53.450;15.496;2023-03-01T02:44:31;101069.75;;;-2.96;100.00
25722;BME280;13578;53.450;15.496;2023-03-01T02:47:32;101057.09;;;-2.88;100.00
25722;BME280;13578;53.450;15.496;2023-03-01T02:54:25;101074.16;;;-2.90;100.00
25722;BME280;13578;53.450;15.496;2023-03-01T02:57:30;101074.06;;;-2.84;100.00
25722;BME280;13578;53.450;15.496;2023-03-01T03:00:42;101071.56;;;-2.96;100.00
25722;BME280;13578;53.450;15.496;2023-03-01T03:03:47;101076.81;;;-2.87;100.00
25722;BME280;13578;53.450;15.496;2023-03-01T03:06:49;101079.41;;;-2.81;100.00
25722;BME280;13578;53.450;15.496;2023-03-01T03:09:50;101071.25;;;-2.75;100.00
25722;BME280;13578;53.450;15.496;2023-03-01T03:12:56;101082.91;;;-2.76;100.00
25722;BME280;13578;53.450;15.496;2023-03-01T03:15:57;101071.19;;;-2.72;100.00
25722;BME280;13578;53.450;15.496;2023-03-01T03:18:58;101071.78;;;-2.51;100.00
25722;BME280;13578;53.450;15.496;2023-03-01T03:22:05;101062.69;;;-2.42;100.00
25722;BME280;13578;53.450;15.496;2023-03-01T03:25:08;101061.66;;;-2.35;100.00
25722;BME280;13578;53.450;15.496;2023-03-01T03:28:11;101058.19;;;-2.42;100.00
25722;BME280;13578;53.450;15.496;2023-03-01T03:31:12;101073.25;;;-2.31;100.00
25722;BME280;13578;53.450;15.496;2023-03-01T03:34:13;101061.03;;;-2.51;100.00
25722;BME280;13578;53.450;15.496;2023-03-01T03:37:18;101065.63;;;-2.59;100.00
25722;BME280;13578;53.450;15.496;2023-03-01T03:40:44;101048.59;;;-2.58;100.00
25722;BME280;13578;53.450;15.496;2023-03-01T03:43:45;101046.56;;;-2.42;100.00
25722;BME280;13578;53.450;15.496;2023-03-01T03:46:46;101049.19;;;-2.41;100.00
25722;BME280;13578;53.450;15.496;2023-03-01T03:49:46;101034.91;;;-2.43;100.00
25722;BME280;13578;53.450;15.496;2023-03-01T03:52:47;101038.03;;;-2.71;100.00
25722;BME280;13578;53.450;15.496;2023-03-01T03:55:48;101037.16;;;-2.71;100.00
25722;BME280;13578;53.450;15.496;2023-03-01T03:58:52;101023.59;;;-2.65;100.00
25722;BME280;13578;53.450;15.496;2023-03-01T04:01:53;101029.75;;;-2.57;100.00
25722;BME280;13578;53.450;15.496;2023-03-01T04:04:53;101035.00;;;-2.49;100.00
25722;BME280;13578;53.450;15.496;2023-03-01T04:07:54;101033.22;;;-2.48;100.00
25722;BME280;13578;53.450;15.496;2023-03-01T04:11:08;101034.03;;;-2.45;100.00
25722;BME280;13578;53.450;15.496;2023-03-01T04:14:27;101026.84;;;-2.43;100.00
25722;BME280;13578;53.450;15.496;2023-03-01T04:17:28;101047.50;;;-2.45;100.00
25722;BME280;13578;53.450;15.496;2023-03-01T04:20:31;101034.16;;;-2.52;100.00
25722;BME280;13578;53.450;15.496;2023-03-01T04:23:33;101028.81;;;-2.54;100.00
25722;BME280;13578;53.450;15.496;2023-03-01T04:26:35;101025.25;;;-2.54;100.00
25722;BME280;13578;53.450;15.496;2023-03-01T04:29:35;101035.75;;;-2.41;100.00
25722;BME280;13578;53.450;15.496;2023-03-01T04:32:36;101025.25;;;-2.54;100.00
25722;BME280;13578;53.450;15.496;2023-03-01T04:35:37;101041.44;;;-2.59;100.00
25722;BME280;13578;53.450;15.496;2023-03-01T04:38:39;101038.69;;;-2.56;100.00
25722;BME280;13578;53.450;15.496;2023-03-01T04:41:40;101026.44;;;-2.74;100.00
25722;BME280;13578;53.450;15.496;2023-03-01T04:44:41;101034.59;;;-2.80;100.00
25722;BME280;13578;53.450;15.496;2023-03-01T04:47:43;101032.88;;;-2.86;100.00
25722;BME280;13578;53.450;15.496;2023-03-01T04:50:44;101031.19;;;-2.92;100.00
25722;BME280;13578;53.450;15.496;2023-03-01T04:53:45;101031.88;;;-2.79;100.00
25722;BME280;13578;53.450;15.496;2023-03-01T04:56:46;101038.13;;;-2.77;100.00
25722;BME280;13578;53.450;15.496;2023-03-01T04:59:46;101024.75;;;-2.81;100.00
25722;BME280;13578;53.450;15.496;2023-03-01T05:05:53;101040.56;;;-2.61;100.00
25722;BME280;13578;53.450;15.496;2023-03-01T05:08:54;101041.47;;;-2.62;100.00
25722;BME280;13578;53.450;15.496;2023-03-01T05:11:54;101033.34;;;-2.58;100.00
25722;BME280;13578;53.450;15.496;2023-03-01T05:14:55;101038.81;;;-2.64;100.00
25722;BME280;13578;53.450;15.496;2023-03-01T05:17:57;101048.50;;;-2.52;100.00
25722;BME280;13578;53.450;15.496;2023-03-01T05:21:05;101051.09;;;-2.46;100.00
25722;BME280;13578;53.450;15.496;2023-03-01T05:24:07;101033.31;;;-2.56;100.00
25722;BME280;13578;53.450;15.496;2023-03-01T05:27:11;101033.41;;;-2.62;100.00
25722;BME280;13578;53.450;15.496;2023-03-01T05:30:12;101021.06;;;-2.74;100.00
25722;BME280;13578;53.450;15.496;2023-03-01T05:33:13;101026.19;;;-2.59;100.00
25722;BME280;13578;53.450;15.496;2023-03-01T05:36:14;101022.59;;;-2.58;100.00
25722;BME280;13578;53.450;15.496;2023-03-01T05:39:15;101015.50;;;-2.62;100.00
25722;BME280;13578;53.450;15.496;2023-03-01T05:42:16;101015.44;;;-2.59;100.00
25722;BME280;13578;53.450;15.496;2023-03-01T05:45:18;101016.28;;;-2.53;100.00
25722;BME280;13578;53.450;15.496;2023-03-01T05:48:19;101032.22;;;-2.44;100.00
25722;BME280;13578;53.450;15.496;2023-03-01T05:51:20;101018.84;;;-2.47;100.00
25722;BME280;13578;53.450;15.496;2023-03-01T05:54:22;101024.06;;;-2.36;100.00
25722;BME280;13578;53.450;15.496;2023-03-01T05:57:23;101030.13;;;-2.25;100.00
25722;BME280;13578;53.450;15.496;2023-03-01T06:00:24;101029.84;;;-2.10;100.00
25722;BME280;13578;53.450;15.496;2023-03-01T06:03:24;101026.47;;;-2.22;100.00
25722;BME280;13578;53.450;15.496;2023-03-01T06:06:25;101026.59;;;-2.29;100.00
25722;BME280;13578;53.450;15.496;2023-03-01T06:09:26;101010.75;;;-2.46;100.00
25722;BME280;13578;53.450;15.496;2023-03-01T06:12:33;101026.63;;;-2.30;100.00
25722;BME280;13578;53.450;15.496;2023-03-01T06:15:34;101040.13;;;-2.32;100.00
25722;BME280;13578;53.450;15.496;2023-03-01T06:18:35;101031.06;;;-2.28;100.00
25722;BME280;13578;53.450;15.496;2023-03-01T06:21:35;101031.94;;;-2.27;100.00
25722;BME280;13578;53.450;15.496;2023-03-01T06:24:36;101030.09;;;-2.22;100.00
25722;BME280;13578;53.450;15.496;2023-03-01T06:27:37;101036.22;;;-2.14;100.00
25722;BME280;13578;53.450;15.496;2023-03-01T06:30:37;101026.41;;;-2.18;100.00
25722;BME280;13578;53.450;15.496;2023-03-01T06:33:38;101035.38;;;-2.19;100.00
25722;BME280;13578;53.450;15.496;2023-03-01T06:36:39;101026.41;;;-2.18;100.00
25722;BME280;13578;53.450;15.496;2023-03-01T06:39:40;101044.16;;;-2.08;100.00
25722;BME280;13578;53.450;15.496;2023-03-01T06:42:42;101042.44;;;-2.12;100.00
25722;BME280;13578;53.450;15.496;2023-03-01T06:45:43;101029.81;;;-2.06;100.00
25722;BME280;13578;53.450;15.496;2023-03-01T06:48:43;101034.28;;;-2.07;100.00
25722;BME280;13578;53.450;15.496;2023-03-01T06:51:44;101029.88;;;-2.13;100.00
25722;BME280;13578;53.450;15.496;2023-03-01T06:54:45;101040.63;;;-2.10;100.00
25722;BME280;13578;53.450;15.496;2023-03-01T06:57:45;101028.97;;;-2.10;100.00
25722;BME280;13578;53.450;15.496;2023-03-01T07:00:46;101042.94;;;-1.89;100.00
25722;BME280;13578;53.450;15.496;2023-03-01T07:03:47;101042.56;;;-1.71;100.00
25722;BME280;13578;53.450;15.496;2023-03-01T07:06:47;101039.88;;;-1.71;100.00
25722;BME280;13578;53.450;15.496;2023-03-01T07:09:54;101041.53;;;-1.62;100.00
25722;BME280;13578;53.450;15.496;2023-03-01T07:12:58;101028.03;;;-1.61;100.00
25722;BME280;13578;53.450;15.496;2023-03-01T07:16:02;101037.84;;;-1.58;100.00
25722;BME280;13578;53.450;15.496;2023-03-01T07:19:03;101031.50;;;-1.55;100.00
25722;BME280;13578;53.450;15.496;2023-03-01T07:22:05;101031.41;;;-1.51;100.00
25722;BME280;13578;53.450;15.496;2023-03-01T07:25:09;101038.50;;;-1.47;100.00
25722;BME280;13578;53.450;15.496;2023-03-01T07:28:10;101050.78;;;-1.32;100.00
25722;BME280;13578;53.450;15.496;2023-03-01T07:31:10;101048.69;;;-1.17;100.00
25722;BME280;13578;53.450;15.496;2023-03-01T07:34:11;101036.81;;;-1.08;100.00
25722;BME280;13578;53.450;15.496;2023-03-01T07:37:12;101035.13;;;-1.13;100.00
25722;BME280;13578;53.450;15.496;2023-03-01T07:40:13;101044.59;;;-0.94;100.00
25722;BME280;13578;53.450;15.496;2023-03-01T07:43:13;101033.88;;;-0.98;100.00
25722;BME280;13578;53.450;15.496;2023-03-01T07:46:14;101040.63;;;-0.78;100.00
25722;BME280;13578;53.450;15.496;2023-03-01T07:49:14;101039.56;;;-0.71;100.00
25722;BME280;13578;53.450;15.496;2023-03-01T07:52:15;101039.22;;;-0.57;100.00
25722;BME280;13578;53.450;15.496;2023-03-01T07:55:16;101047.00;;;-0.43;100.00
25722;BME280;13578;53.450;15.496;2023-03-01T07:58:17;101037.88;;;-0.37;100.00
25722;BME280;13578;53.450;15.496;2023-03-01T08:01:19;101043.00;;;-0.26;100.00
25722;BME280;13578;53.450;15.496;2023-03-01T08:04:20;101044.09;;;-0.35;100.00
25722;BME280;13578;53.450;15.496;2023-03-01T08:07:21;101029.34;;;-0.22;100.00
25722;BME280;13578;53.450;15.496;2023-03-01T08:10:21;101040.25;;;-0.25;100.00
25722;BME280;13578;53.450;15.496;2023-03-01T08:13:22;101027.44;;;-0.17;100.00
25722;BME280;13578;53.450;15.496;2023-03-01T08:16:23;101039.34;;;0.09;100.00
25722;BME280;13578;53.450;15.496;2023-03-01T08:19:24;101035.53;;;0.18;100.00
25722;BME280;13578;53.450;15.496;2023-03-01T08:22:24;101046.78;;;0.34;100.00
25722;BME280;13578;53.450;15.496;2023-03-01T08:25:25;101042.38;;;0.31;100.00
25722;BME280;13578;53.450;15.496;2023-03-01T08:28:26;101035.88;;;0.39;100.00
25722;BME280;13578;53.450;15.496;2023-03-01T08:31:36;101048.44;;;0.71;100.00
25722;BME280;13578;53.450;15.496;2023-03-01T08:34:36;101042.25;;;0.68;100.00
25722;BME280;13578;53.450;15.496;2023-03-01T08:37:37;101049.31;;;0.73;100.00
25722;BME280;13578;53.450;15.496;2023-03-01T08:40:38;101041.00;;;0.79;100.00
25722;BME280;13578;53.450;15.496;2023-03-01T08:43:38;101032.00;;;0.79;100.00
25722;BME280;13578;53.450;15.496;2023-03-01T08:46:40;101034.28;;;0.93;100.00
25722;BME280;13578;53.450;15.496;2023-03-01T08:49:42;101035.69;;;1.06;100.00
25722;BME280;13578;53.450;15.496;2023-03-01T08:52:43;101029.16;;;1.14;100.00
25722;BME280;13578;53.450;15.496;2023-03-01T08:55:43;101035.47;;;1.13;100.00
25722;BME280;13578;53.450;15.496;2023-03-01T08:58:46;101028.38;;;1.38;100.00
25722;BME280;13578;53.450;15.496;2023-03-01T09:01:46;101024.41;;;1.49;100.00
25722;BME280;13578;53.450;15.496;2023-03-01T09:04:47;101030.72;;;1.49;100.00
25722;BME280;13578;53.450;15.496;2023-03-01T09:07:48;101036.22;;;1.74;100.00
25722;BME280;13578;53.450;15.496;2023-03-01T09:10:48;101031.31;;;1.86;100.00
25722;BME280;13578;53.450;15.496;2023-03-01T09:13:49;101040.69;;;2.02;100.00
25722;BME280;13578;53.450;15.496;2023-03-01T09:16:50;101028.06;;;2.01;100.00
25722;BME280;13578;53.450;15.496;2023-03-01T09:19:50;101051.41;;;2.05;100.00
25722;BME280;13578;53.450;15.496;2023-03-01T09:22:51;101042.00;;;2.16;100.00
25722;BME280;13578;53.450;15.496;2023-03-01T09:25:52;101045.34;;;2.24;100.00
25722;BME280;13578;53.450;15.496;2023-03-01T09:28:56;101022.91;;;2.20;100.00
25722;BME280;13578;53.450;15.496;2023-03-01T09:31:57;101031.47;;;2.33;100.00
25722;BME280;13578;53.450;15.496;2023-03-01T09:34:58;101042.16;;;2.38;100.00
25722;BME280;13578;53.450;15.496;2023-03-01T09:38:04;101032.56;;;2.53;100.00
25722;BME280;13578;53.450;15.496;2023-03-01T09:41:45;101035.13;;;2.81;100.00
25722;BME280;13578;53.450;15.496;2023-03-01T09:44:56;101038.63;;;2.83;100.00
25722;BME280;13578;53.450;15.496;2023-03-01T09:48:00;101040.13;;;2.92;100.00
25722;BME280;13578;53.450;15.496;2023-03-01T09:51:08;101024.66;;;2.94;100.00
25722;BME280;13578;53.450;15.496;2023-03-01T09:54:12;101021.00;;;2.95;100.00
25722;BME280;13578;53.450;15.496;2023-03-01T09:57:33;101032.34;;;2.83;100.00
25722;BME280;13578;53.450;15.496;2023-03-01T10:00:42;101017.09;;;2.80;100.00
25722;BME280;13578;53.450;15.496;2023-03-01T10:03:55;101024.81;;;2.91;100.00
25722;BME280;13578;53.450;15.496;2023-03-01T10:10:37;101009.13;;;3.22;100.00
25722;BME280;13578;53.450;15.496;2023-03-01T10:13:41;101028.66;;;3.54;100.00
25722;BME280;13578;53.450;15.496;2023-03-01T10:17:30;101023.84;;;3.60;100.00
25722;BME280;13578;53.450;15.496;2023-03-01T10:23:43;101010.06;;;3.87;100.00
25722;BME280;13578;53.450;15.496;2023-03-01T10:27:05;101026.22;;;3.90;100.00
25722;BME280;13578;53.450;15.496;2023-03-01T10:33:23;101025.97;;;3.96;100.00
25722;BME280;13578;53.450;15.496;2023-03-01T10:36:25;101014.56;;;4.09;100.00
25722;BME280;13578;53.450;15.496;2023-03-01T10:39:26;101015.91;;;4.19;100.00
25722;BME280;13578;53.450;15.496;2023-03-01T10:42:29;101013.97;;;4.43;100.00
25722;BME280;13578;53.450;15.496;2023-03-01T10:45:36;101008.25;;;4.50;100.00
25722;BME280;13578;53.450;15.496;2023-03-01T10:48:38;101006.84;;;4.60;100.00
25722;BME280;13578;53.450;15.496;2023-03-01T10:51:43;101000.47;;;4.61;100.00
25722;BME280;13578;53.450;15.496;2023-03-01T10:55:04;101017.03;;;4.75;100.00
25722;BME280;13578;53.450;15.496;2023-03-01T10:58:21;101008.34;;;4.86;100.00
25722;BME280;13578;53.450;15.496;2023-03-01T11:04:22;101006.16;;;4.95;100.00
25722;BME280;13578;53.450;15.496;2023-03-01T11:07:23;100992.63;;;4.93;100.00
25722;BME280;13578;53.450;15.496;2023-03-01T11:10:42;101003.00;;;5.04;100.00
25722;BME280;13578;53.450;15.496;2023-03-01T11:14:06;101000.63;;;5.15;100.00
25722;BME280;13578;53.450;15.496;2023-03-01T11:17:18;101010.44;;;5.38;100.00
25722;BME280;13578;53.450;15.496;2023-03-01T11:23:28;100986.03;;;5.54;100.00
25722;BME280;13578;53.450;15.496;2023-03-01T11:26:31;100988.78;;;5.72;100.00
25722;BME280;13578;53.450;15.496;2023-03-01T11:29:44;100986.03;;;5.54;100.00
25722;BME280;13578;53.450;15.496;2023-03-01T11:33:17;100969.97;;;5.67;100.00
25722;BME280;13578;53.450;15.496;2023-03-01T11:39:40;100982.66;;;5.49;100.00
25722;BME280;13578;53.450;15.496;2023-03-01T11:47:01;100980.03;;;5.65;100.00
25722;BME280;13578;53.450;15.496;2023-03-01T11:58:05;100965.72;;;5.79;100.00
25722;BME280;13578;53.450;15.496;2023-03-01T12:07:27;100947.38;;;5.83;100.00
25722;BME280;13578;53.450;15.496;2023-03-01T12:17:15;100936.56;;;5.99;100.00
25722;BME280;13578;53.450;15.496;2023-03-01T12:25:00;100932.09;;;6.15;100.00
25722;BME280;13578;53.450;15.496;2023-03-01T12:27:57;100945.53;;;6.18;100.00
25722;BME280;13578;53.450;15.496;2023-03-01T12:34:19;100927.03;;;6.41;100.00
25722;BME280;13578;53.450;15.496;2023-03-01T12:37:39;100937.25;;;6.38;100.00
25722;BME280;13578;53.450;15.496;2023-03-01T12:50:39;100907.81;;;6.76;100.00
25722;BME280;13578;53.450;15.496;2023-03-01T12:53:45;100900.25;;;6.65;100.00
25722;BME280;13578;53.450;15.496;2023-03-01T12:56:47;100887.66;;;6.63;100.00
25722;BME280;13578;53.450;15.496;2023-03-01T13:00:21;100887.06;;;6.58;100.00
25722;BME280;13578;53.450;15.496;2023-03-01T13:16:39;100876.94;;;6.76;100.00
25722;BME280;13578;53.450;15.496;2023-03-01T13:19:56;100880.72;;;6.73;100.00
25722;BME280;13578;53.450;15.496;2023-03-01T13:23:11;100869.91;;;6.88;100.00
25722;BME280;13578;53.450;15.496;2023-03-01T13:26:16;100872.78;;;6.84;100.00
25722;BME280;13578;53.450;15.496;2023-03-01T13:29:26;100878.53;;;6.96;100.00
25722;BME280;13578;53.450;15.496;2023-03-01T13:35:43;100860.50;;;6.93;100.00
25722;BME280;13578;53.450;15.496;2023-03-01T13:38:48;100883.34;;;6.91;100.00
25722;BME280;13578;53.450;15.496;2023-03-01T13:41:58;100877.13;;;6.89;100.00
25722;BME280;13578;53.450;15.496;2023-03-01T13:45:00;100890.41;;;6.95;100.00
25722;BME280;13578;53.450;15.496;2023-03-01T13:48:24;100860.28;;;6.96;100.00
25722;BME280;13578;53.450;15.496;2023-03-01T13:51:27;100873.50;;;6.88;100.00
25722;BME280;13578;53.450;15.496;2023-03-01T13:54:31;100869.09;;;7.02;100.00
25722;BME280;13578;53.450;15.496;2023-03-01T13:57:36;100865.66;;;6.98;100.00
25722;BME280;13578;53.450;15.496;2023-03-01T14:00:39;100851.03;;;6.99;100.00
25722;BME280;13578;53.450;15.496;2023-03-01T14:03:41;100852.38;;;6.92;100.00
25722;BME280;13578;53.450;15.496;2023-03-01T14:06:42;100856.34;;;6.86;100.00
25722;BME280;13578;53.450;15.496;2023-03-01T14:09:45;100846.22;;;7.04;100.00
25722;BME280;13578;53.450;15.496;2023-03-01T14:13:39;100838.78;;;7.06;100.00
25722;BME280;13578;53.450;15.496;2023-03-01T14:16:31;100845.06;;;7.08;100.00
25722;BME280;13578;53.450;15.496;2023-03-01T14:19:35;100826.13;;;7.05;100.00
25722;BME280;13578;53.450;15.496;2023-03-01T14:22:36;100843.81;;;7.14;100.00
25722;BME280;13578;53.450;15.496;2023-03-01T14:25:47;100839.41;;;7.11;100.00
25722;BME280;13578;53.450;15.496;2023-03-01T14:28:50;100848.56;;;7.10;100.00
25722;BME280;13578;53.450;15.496;2023-03-01T14:31:51;100838.97;;;7.19;100.00
25722;BME280;13578;53.450;15.496;2023-03-01T14:34:52;100844.88;;;7.11;100.00
25722;BME280;13578;53.450;15.496;2023-03-01T14:37:52;100819.63;;;7.08;100.00
25722;BME280;13578;53.450;15.496;2023-03-01T14:40:59;100836.25;;;7.03;100.00
25722;BME280;13578;53.450;15.496;2023-03-01T14:44:06;100823.13;;;7.10;100.00
25722;BME280;13578;53.450;15.496;2023-03-01T14:47:23;100822.34;;;7.08;100.00
25722;BME280;13578;53.450;15.496;2023-03-01T14:50:28;100817.28;;;7.16;100.00
25722;BME280;13578;53.450;15.496;2023-03-01T14:53:29;100805.88;;;7.09;100.00
25722;BME280;13578;53.450;15.496;2023-03-01T14:56:43;100821.28;;;7.10;100.00
25722;BME280;13578;53.450;15.496;2023-03-01T14:59:45;100807.94;;;6.90;100.00
25722;BME280;13578;53.450;15.496;2023-03-01T15:02:50;100807.75;;;6.93;100.00
25722;BME280;13578;53.450;15.496;2023-03-01T15:05:51;100808.97;;;7.03;100.00
25722;BME280;13578;53.450;15.496;2023-03-01T15:08:54;100807.00;;;7.05;100.00
25722;BME280;13578;53.450;15.496;2023-03-01T15:11:57;100787.81;;;7.07;100.00
25722;BME280;13578;53.450;15.496;2023-03-01T15:14:58;100794.94;;;7.09;100.00
25722;BME280;13578;53.450;15.496;2023-03-01T15:18:02;100783.44;;;7.04;100.00
25722;BME280;13578;53.450;15.496;2023-03-01T15:21:09;100775.41;;;7.01;100.00
25722;BME280;13578;53.450;15.496;2023-03-01T15:27:30;100792.78;;;6.84;100.00
25722;BME280;13578;53.450;15.496;2023-03-01T15:30:33;100800.63;;;6.90;100.00
25722;BME280;13578;53.450;15.496;2023-03-01T15:33:37;100797.72;;;6.93;100.00
25722;BME280;13578;53.450;15.496;2023-03-01T15:36:44;100793.84;;;6.81;100.00
25722;BME280;13578;53.450;15.496;2023-03-01T15:39:56;100789.28;;;6.82;100.00
25722;BME280;13578;53.450;15.496;2023-03-01T15:43:02;100773.16;;;6.77;100.00
25722;BME280;13578;53.450;15.496;2023-03-01T15:46:03;100783.81;;;6.82;100.00
25722;BME280;13578;53.450;15.496;2023-03-01T15:49:19;100778.81;;;6.74;100.00
25722;BME280;13578;53.450;15.496;2023-03-01T15:55:31;100779.38;;;6.49;100.00
25722;BME280;13578;53.450;15.496;2023-03-01T15:58:33;100787.34;;;6.36;100.00
25722;BME280;13578;53.450;15.496;2023-03-01T16:01:34;100775.75;;;6.16;100.00
25722;BME280;13578;53.450;15.496;2023-03-01T16:04:35;100783.56;;;6.23;100.00
25722;BME280;13578;53.450;15.496;2023-03-01T16:07:35;100787.16;;;6.07;100.00
25722;BME280;13578;53.450;15.496;2023-03-01T16:10:40;100793.06;;;5.98;100.00
25722;BME280;13578;53.450;15.496;2023-03-01T16:13:44;100784.31;;;5.75;100.00
25722;BME280;13578;53.450;15.496;2023-03-01T16:16:46;100779.19;;;5.69;100.00
25722;BME280;13578;53.450;15.496;2023-03-01T16:19:48;100779.06;;;5.54;100.00
25722;BME280;13578;53.450;15.496;2023-03-01T16:22:48;100771.19;;;5.66;100.00
25722;BME280;13578;53.450;15.496;2023-03-01T16:25:49;100770.31;;;5.65;100.00
25722;BME280;13578;53.450;15.496;2023-03-01T16:28:50;100777.25;;;5.37;100.00
25722;BME280;13578;53.450;15.496;2023-03-01T16:31:54;100795.34;;;5.21;100.00
25722;BME280;13578;53.450;15.496;2023-03-01T16:34:55;100793.09;;;4.94;100.00
25722;BME280;13578;53.450;15.496;2023-03-01T16:37:59;100796.50;;;4.80;100.00
25722;BME280;13578;53.450;15.496;2023-03-01T16:41:00;100783.97;;;4.58;100.00
25722;BME280;13578;53.450;15.496;2023-03-01T16:44:01;100804.25;;;4.51;100.00
25722;BME280;13578;53.450;15.496;2023-03-01T16:47:01;100794.72;;;4.23;100.00
25722;BME280;13578;53.450;15.496;2023-03-01T16:50:02;100798.25;;;4.25;100.00
25722;BME280;13578;53.450;15.496;2023-03-01T16:53:03;100800.59;;;4.14;100.00
25722;BME280;13578;53.450;15.496;2023-03-01T16:56:09;100800.44;;;3.98;100.00
25722;BME280;13578;53.450;15.496;2023-03-01T16:59:10;100802.50;;;3.72;100.00
25722;BME280;13578;53.450;15.496;2023-03-01T17:02:12;100801.38;;;3.57;100.00
25722;BME280;13578;53.450;15.496;2023-03-01T17:05:13;100806.19;;;3.50;100.00
25722;BME280;13578;53.450;15.496;2023-03-01T17:08:14;100795.22;;;3.33;100.00
25722;BME280;13578;53.450;15.496;2023-03-01T17:11:17;100797.44;;;3.23;100.00
25722;BME280;13578;53.450;15.496;2023-03-01T17:14:18;100805.84;;;3.17;100.00
25722;BME280;13578;53.450;15.496;2023-03-01T17:17:20;100788.88;;;2.91;100.00
25722;BME280;13578;53.450;15.496;2023-03-01T17:20:20;100809.34;;;2.98;100.00
25722;BME280;13578;53.450;15.496;2023-03-01T17:23:21;100789.50;;;2.76;100.00
25722;BME280;13578;53.450;15.496;2023-03-01T17:26:22;100812.28;;;2.72;100.00